createdAt,value
2022-12-17T00:02:18.899Z,96328.44
2022-12-17T00:05:04.313Z,96353.63
2022-12-17T00:07:49.582Z,96385.66
2022-12-17T00:10:34.712Z,96361.25
2022-12-17T00:13:19.949Z,96363.91
2022-12-17T00:16:14.425Z,96396.28
2022-12-17T00:18:59.657Z,96410.50
2022-12-17T00:21:44.711Z,96392.91
2022-12-17T00:24:30.012Z,96419.88
2022-12-17T00:27:15.145Z,96423.13
2022-12-17T00:30:02.279Z,96425.47
2022-12-17T00:32:47.611Z,96417.97
2022-12-17T00:35:32.867Z,96416.88
2022-12-17T00:38:18.278Z,96418.28
2022-12-17T00:41:03.586Z,96401.22
2022-12-17T00:43:48.879Z,96397.47
2022-12-17T00:46:34.226Z,96406.97
2022-12-17T00:49:19.531Z,96408.84
2022-12-17T00:52:04.843Z,96446.97
2022-12-17T00:54:49.987Z,96412.13
2022-12-17T00:57:35.320Z,96426.84
2022-12-17T01:00:20.393Z,96446.03
2022-12-17T01:03:05.690Z,96426.56
2022-12-17T01:05:51.114Z,96458.78
2022-12-17T01:08:36.325Z,96451.16
2022-12-17T01:11:25.118Z,96454.25
2022-12-17T01:14:11.287Z,96425.63
2022-12-17T01:16:56.582Z,96459.91
2022-12-17T01:19:42.317Z,96442.16
2022-12-17T01:22:28.645Z,96424.25
2022-12-17T01:25:13.821Z,96448.00
2022-12-17T01:27:59.029Z,96480.50
2022-12-17T01:30:45.191Z,96470.94
2022-12-17T01:33:30.585Z,96494.94
2022-12-17T01:36:17.256Z,96445.09
2022-12-17T01:39:02.984Z,96490.88
2022-12-17T01:41:48.619Z,96504.91
2022-12-17T01:45:03.702Z,96505.06
2022-12-17T01:47:53.604Z,96501.53
2022-12-17T01:50:44.921Z,96492.53
2022-12-17T01:53:30.577Z,96516.53
2022-12-17T01:56:17.300Z,96488.22
2022-12-17T01:59:03.474Z,96500.81
2022-12-17T02:01:48.805Z,96482.59
2022-12-17T02:04:34.844Z,96499.31
2022-12-17T02:07:39.976Z,96530.25
2022-12-17T02:10:45.704Z,96525.56
2022-12-17T02:13:41.465Z,96534.44
2022-12-17T02:16:33.815Z,96526.09
2022-12-17T02:19:42.090Z,96516.09
2022-12-17T02:23:23.622Z,96530.59
2022-12-17T02:26:18.519Z,96504.34
2022-12-17T02:29:08.781Z,96507.66
2022-12-17T02:31:55.732Z,96520.22
2022-12-17T02:34:42.068Z,96535.66
2022-12-17T02:37:27.291Z,96518.16
2022-12-17T02:40:12.519Z,96529.66
2022-12-17T02:42:57.650Z,96526.22
2022-12-17T02:45:43.649Z,96541.97
2022-12-17T02:48:31.152Z,96548.91
2022-12-17T02:51:17.764Z,96543.22
2022-12-17T02:54:08.464Z,96562.34
2022-12-17T02:56:54.257Z,96531.81
2022-12-17T02:59:39.444Z,96570.53
2022-12-17T03:02:31.179Z,96528.59
2022-12-17T03:05:44.053Z,96562.25
2022-12-17T03:08:24.660Z,96554.19
2022-12-17T03:11:09.885Z,96549.88
2022-12-17T03:13:56.449Z,96573.03
2022-12-17T03:16:41.779Z,96586.69
2022-12-17T03:19:28.430Z,96591.56
2022-12-17T03:22:13.628Z,96561.66
2022-12-17T03:24:58.946Z,96587.41
2022-12-17T03:27:44.043Z,96600.41
2022-12-17T03:30:34.561Z,96615.22
2022-12-17T03:33:21.044Z,96609.13
2022-12-17T03:36:06.046Z,96574.41
2022-12-17T03:38:51.371Z,96605.94
2022-12-17T03:41:36.711Z,96597.75
2022-12-17T03:44:21.731Z,96620.44
2022-12-17T03:47:07.098Z,96611.84
2022-12-17T03:49:52.204Z,96595.75
2022-12-17T03:52:37.326Z,96619.50
2022-12-17T03:55:22.969Z,96600.34
2022-12-17T03:58:08.230Z,96596.34
2022-12-17T04:00:53.280Z,96630.59
2022-12-17T04:03:38.725Z,96601.19
2022-12-17T04:06:24.229Z,96605.78
2022-12-17T04:09:09.450Z,96593.38
2022-12-17T04:11:54.705Z,96628.19
2022-12-17T04:14:39.949Z,96633.19
2022-12-17T04:17:24.878Z,96641.66
2022-12-17T04:20:10.104Z,96611.59
2022-12-17T04:22:54.903Z,96633.09
2022-12-17T04:25:40.177Z,96630.72
2022-12-17T04:28:25.201Z,96648.13
2022-12-17T04:31:10.429Z,96620.97
2022-12-17T04:33:55.601Z,96627.25
2022-12-17T04:36:40.889Z,96649.69
2022-12-17T04:39:26.095Z,96658.94
2022-12-17T04:42:11.353Z,96639.38
2022-12-17T04:44:56.589Z,96669.34
2022-12-17T04:47:41.737Z,96664.38
2022-12-17T04:50:27.009Z,96645.31
2022-12-17T04:53:21.834Z,96650.34
2022-12-17T04:56:07.660Z,96685.25
2022-12-17T04:58:53.203Z,96670.47
2022-12-17T05:01:39.505Z,96703.84
2022-12-17T05:04:24.801Z,96681.16
2022-12-17T05:07:09.984Z,96661.47
2022-12-17T05:09:55.360Z,96704.50
2022-12-17T05:12:40.540Z,96679.31
2022-12-17T05:15:26.199Z,96710.69
2022-12-17T05:18:11.337Z,96697.84
2022-12-17T05:20:56.660Z,96734.31
2022-12-17T05:23:41.952Z,96715.25
2022-12-17T05:26:44.912Z,96750.72
2022-12-17T05:29:30.094Z,96738.47
2022-12-17T05:32:15.478Z,96731.75
2022-12-17T05:35:00.549Z,96701.16
2022-12-17T05:37:45.890Z,96750.09
2022-12-17T05:40:30.961Z,96727.06
2022-12-17T05:43:18.200Z,96755.06
2022-12-17T05:46:03.854Z,96759.16
2022-12-17T05:48:50.536Z,96760.75
2022-12-17T05:51:38.821Z,96762.09
2022-12-17T05:54:25.521Z,96747.47
2022-12-17T05:57:11.064Z,96767.00
2022-12-17T05:59:56.169Z,96742.38
2022-12-17T06:02:41.825Z,96744.97
2022-12-17T06:05:28.097Z,96776.16
2022-12-17T06:08:20.821Z,96781.59
2022-12-17T06:11:05.923Z,96745.44
2022-12-17T06:13:51.055Z,96767.38
2022-12-17T06:16:36.341Z,96768.84
2022-12-17T06:19:21.683Z,96777.53
2022-12-17T06:22:10.085Z,96786.59
2022-12-17T06:24:55.276Z,96751.59
2022-12-17T06:27:40.529Z,96752.91
2022-12-17T06:30:26.261Z,96795.91
2022-12-17T06:33:11.412Z,96785.06
2022-12-17T06:35:56.542Z,96804.63
2022-12-17T06:38:41.657Z,96730.19
2022-12-17T06:41:26.732Z,96828.50
2022-12-17T06:44:11.795Z,96823.50
2022-12-17T06:46:56.654Z,96837.66
2022-12-17T06:49:42.000Z,96848.38
2022-12-17T06:52:27.088Z,96820.47
2022-12-17T06:55:12.426Z,96823.50
2022-12-17T06:57:57.639Z,96824.94
2022-12-17T07:00:42.866Z,96873.44
2022-12-17T07:03:30.675Z,96866.63
2022-12-17T07:06:19.647Z,96860.44
2022-12-17T07:09:05.398Z,96859.88
2022-12-17T07:11:50.716Z,96844.75
2022-12-17T07:14:35.962Z,96863.94
2022-12-17T07:17:20.920Z,96843.13
2022-12-17T07:20:06.128Z,96882.16
2022-12-17T07:22:51.403Z,96884.06
2022-12-17T07:25:38.551Z,96887.81
2022-12-17T07:28:26.703Z,96890.69
2022-12-17T07:31:13.982Z,96900.56
2022-12-17T07:33:59.301Z,96863.94
2022-12-17T07:36:44.489Z,96887.66
2022-12-17T07:39:29.725Z,96867.28
2022-12-17T07:42:15.065Z,96888.06
2022-12-17T07:45:00.112Z,96909.13
2022-12-17T07:47:45.467Z,96923.53
2022-12-17T07:50:30.401Z,96903.72
2022-12-17T07:53:23.243Z,96929.38
2022-12-17T07:56:08.456Z,96936.13
2022-12-17T07:58:53.674Z,96886.34
2022-12-17T08:01:39.090Z,96941.16
2022-12-17T08:04:24.561Z,96948.22
2022-12-17T08:07:12.254Z,96950.63
2022-12-17T08:09:59.242Z,96953.03
2022-12-17T08:12:44.493Z,96944.53
2022-12-17T08:15:29.657Z,96961.56
2022-12-17T08:18:26.430Z,96972.63
2022-12-17T08:21:12.530Z,96942.59
2022-12-17T08:23:57.907Z,96955.69
2022-12-17T08:26:47.797Z,96984.69
2022-12-17T08:29:33.292Z,96961.47
2022-12-17T08:32:18.653Z,96993.44
2022-12-17T08:35:03.754Z,97002.78
2022-12-17T08:37:49.710Z,96976.63
2022-12-17T08:40:35.010Z,96987.81
2022-12-17T08:43:20.283Z,96994.09
2022-12-17T08:46:07.025Z,96987.13
2022-12-17T08:48:52.784Z,97004.06
2022-12-17T08:51:37.987Z,97011.97
2022-12-17T08:54:23.325Z,96981.13
2022-12-17T08:57:08.189Z,96993.25
2022-12-17T08:59:53.091Z,96975.13
2022-12-17T09:02:38.310Z,96978.81
2022-12-17T09:05:24.111Z,96998.59
2022-12-17T09:08:17.631Z,96999.97
2022-12-17T09:11:03.118Z,96973.13
2022-12-17T09:13:48.162Z,97006.72
2022-12-17T09:16:33.376Z,97002.59
2022-12-17T09:19:18.603Z,96971.47
2022-12-17T09:22:03.881Z,96986.63
2022-12-17T09:24:49.058Z,96994.91
2022-12-17T09:27:34.624Z,96998.47
2022-12-17T09:30:19.919Z,97011.16
2022-12-17T09:33:05.106Z,96996.56
2022-12-17T09:35:50.108Z,96999.81
2022-12-17T09:38:35.255Z,97018.72
2022-12-17T09:41:38.468Z,97020.97
2022-12-17T09:44:34.246Z,97042.41
2022-12-17T09:47:47.196Z,97049.31
2022-12-17T09:50:34.200Z,97044.66
2022-12-17T09:53:21.450Z,97026.25
2022-12-17T09:56:11.596Z,97039.19
2022-12-17T09:58:59.000Z,97025.13
2022-12-17T10:01:51.437Z,97013.09
2022-12-17T10:05:00.515Z,97052.06
2022-12-17T10:07:52.134Z,97054.84
2022-12-17T10:10:44.524Z,97062.13
2022-12-17T10:13:32.952Z,97048.97
2022-12-17T10:16:18.389Z,97052.31
2022-12-17T10:19:05.245Z,97054.72
2022-12-17T10:21:51.573Z,97059.06
2022-12-17T10:24:37.125Z,97019.91
2022-12-17T10:27:29.880Z,97036.75
2022-12-17T10:30:15.319Z,96989.50
2022-12-17T10:33:00.592Z,97054.38
2022-12-17T10:35:54.923Z,97034.25
2022-12-17T10:38:40.238Z,97053.41
2022-12-17T10:41:44.924Z,97020.41
2022-12-17T10:44:41.196Z,97054.22
2022-12-17T10:47:40.613Z,97059.56
2022-12-17T10:50:41.293Z,97054.22
2022-12-17T10:53:41.287Z,97051.47
2022-12-17T10:56:40.155Z,97055.19
2022-12-17T10:59:31.934Z,97073.38
2022-12-17T11:02:18.334Z,97065.63
2022-12-17T11:05:11.842Z,97069.34
2022-12-17T11:08:01.278Z,97078.44
2022-12-17T11:10:50.692Z,97038.56
2022-12-17T11:13:58.358Z,97049.03
2022-12-17T11:16:52.689Z,97049.41
2022-12-17T11:20:01.819Z,97081.41
2022-12-17T11:22:58.082Z,97090.56
2022-12-17T11:25:56.487Z,97088.41
2022-12-17T11:28:48.710Z,97079.56
2022-12-17T11:31:36.726Z,97093.00
2022-12-17T11:34:56.127Z,97103.72
2022-12-17T11:37:48.817Z,97073.13
2022-12-17T11:40:55.277Z,97096.84
2022-12-17T11:43:49.657Z,97099.72
2022-12-17T11:47:16.686Z,97100.81
2022-12-17T11:50:08.017Z,97088.06
2022-12-17T11:53:10.529Z,97097.06
2022-12-17T11:56:18.184Z,97090.84
2022-12-17T11:59:10.295Z,97086.94
2022-12-17T12:02:21.346Z,97085.78
2022-12-17T12:05:29.349Z,97088.72
2022-12-17T12:08:39.498Z,97089.22
2022-12-17T12:11:43.274Z,97092.09
2022-12-17T12:14:46.152Z,97089.09
2022-12-17T12:17:52.690Z,97085.97
2022-12-17T12:20:45.635Z,97093.56
2022-12-17T12:23:37.136Z,97093.38
2022-12-17T12:26:33.883Z,97084.91
2022-12-17T12:29:52.853Z,97091.38
2022-12-17T12:32:51.341Z,97076.03
2022-12-17T12:35:40.900Z,97066.72
2022-12-17T12:38:46.211Z,97094.09
2022-12-17T12:42:06.125Z,97098.25
2022-12-17T12:45:10.383Z,97100.50
2022-12-17T12:48:30.206Z,97091.38
2022-12-17T12:51:39.373Z,97095.44
2022-12-17T12:54:49.495Z,97106.56
2022-12-17T12:57:59.110Z,97080.97
2022-12-17T13:00:44.425Z,97108.44
2022-12-17T13:03:45.268Z,97117.88
2022-12-17T13:06:44.941Z,97124.09
2022-12-17T13:09:23.425Z,97120.69
2022-12-17T13:11:55.050Z,97122.38
2022-12-17T13:14:29.659Z,97127.16
2022-12-17T13:17:05.191Z,97129.25
2022-12-17T13:19:31.790Z,97137.81
2022-12-17T13:22:21.964Z,97139.47
2022-12-17T13:24:53.546Z,97135.34
2022-12-17T13:27:35.510Z,97138.59
2022-12-17T13:30:34.359Z,97135.34
2022-12-17T13:33:26.036Z,97138.22
2022-12-17T13:36:14.010Z,97150.41
2022-12-17T13:39:06.457Z,97149.47
2022-12-17T13:41:35.486Z,97154.22
2022-12-17T13:44:18.669Z,97133.94
2022-12-17T13:46:48.029Z,97159.84
2022-12-17T13:49:29.844Z,97155.13
2022-12-17T13:52:11.867Z,97163.31
2022-12-17T13:54:38.797Z,97172.69
2022-12-17T13:57:10.936Z,97159.78
2022-12-17T13:59:38.023Z,97145.19
2022-12-17T14:02:05.066Z,97164.91
2022-12-17T14:04:31.908Z,97178.59
2022-12-17T14:07:03.242Z,97180.28
2022-12-17T14:09:39.855Z,97184.88
2022-12-17T14:12:22.716Z,97172.84
2022-12-17T14:14:57.018Z,97204.59
2022-12-17T14:17:28.848Z,97205.06
2022-12-17T14:20:40.318Z,97204.34
2022-12-17T14:23:20.520Z,97195.59
2022-12-17T14:25:49.040Z,97179.78
2022-12-17T14:28:24.635Z,97198.50
2022-12-17T14:31:26.243Z,97207.97
2022-12-17T14:34:08.203Z,97207.44
2022-12-17T14:36:38.925Z,97200.19
2022-12-17T14:39:18.060Z,97214.38
2022-12-17T14:42:03.051Z,97194.25
2022-12-17T14:44:31.110Z,97198.78
2022-12-17T14:47:08.814Z,97229.28
2022-12-17T14:49:38.764Z,97215.84
2022-12-17T14:52:14.562Z,97223.16
2022-12-17T14:54:46.643Z,97216.03
2022-12-17T14:57:22.017Z,97218.06
2022-12-17T14:59:50.312Z,97221.91
2022-12-17T15:02:27.625Z,97222.94
2022-12-17T15:04:57.886Z,97223.78
2022-12-17T15:07:28.163Z,97222.03
2022-12-17T15:09:55.915Z,97224.84
2022-12-17T15:12:24.295Z,97228.56
2022-12-17T15:14:50.941Z,97206.09
2022-12-17T15:17:17.762Z,97206.31
2022-12-17T15:19:44.626Z,97180.81
2022-12-17T15:22:17.382Z,97238.22
2022-12-17T15:24:45.753Z,97236.03
2022-12-17T15:27:14.295Z,97236.44
2022-12-17T15:29:40.891Z,97231.69
2022-12-17T15:32:08.319Z,97169.09
2022-12-17T15:34:34.961Z,97247.09
2022-12-17T15:37:01.600Z,97218.56
2022-12-17T15:39:28.968Z,97236.19
2022-12-17T15:42:14.266Z,97233.97
2022-12-17T15:44:40.889Z,97237.69
2022-12-17T15:47:07.496Z,97230.94
2022-12-17T15:49:34.198Z,97239.63
2022-12-17T15:52:00.806Z,97211.50
2022-12-17T15:54:27.610Z,97245.59
2022-12-17T15:56:55.295Z,97250.09
2022-12-17T15:59:22.393Z,97252.22
2022-12-17T16:01:49.105Z,97211.66
2022-12-17T16:04:20.286Z,97241.41
2022-12-17T16:06:51.435Z,97246.47
2022-12-17T16:09:18.085Z,97238.34
2022-12-17T16:11:45.113Z,97185.06
2022-12-17T16:14:11.669Z,97232.66
2022-12-17T16:16:38.321Z,97247.88
2022-12-17T16:19:05.053Z,97245.81
2022-12-17T16:21:31.687Z,97218.63
2022-12-17T16:23:58.255Z,97251.09
2022-12-17T16:26:26.357Z,97238.19
2022-12-17T16:28:53.057Z,97246.09
2022-12-17T16:31:19.787Z,97250.06
2022-12-17T16:33:48.195Z,97252.78
2022-12-17T16:36:17.961Z,97234.19
2022-12-17T16:38:49.253Z,97251.63
2022-12-17T16:41:16.997Z,97261.56
2022-12-17T16:43:43.645Z,97266.72
2022-12-17T16:46:35.051Z,97264.75
2022-12-17T16:49:09.463Z,97278.00
2022-12-17T16:51:36.432Z,97267.50
2022-12-17T16:54:08.513Z,97250.59
2022-12-17T16:56:40.043Z,97267.41
2022-12-17T16:59:08.339Z,97279.34
2022-12-17T17:01:35.617Z,97252.09
2022-12-17T17:04:04.483Z,97263.53
2022-12-17T17:06:33.745Z,97288.72
2022-12-17T17:09:04.337Z,97291.84
2022-12-17T17:11:31.097Z,97275.03
2022-12-17T17:13:57.799Z,97298.19
2022-12-17T17:16:25.383Z,97286.25
2022-12-17T17:18:53.358Z,97275.72
2022-12-17T17:21:19.928Z,97298.19
2022-12-17T17:23:48.454Z,97314.34
2022-12-17T17:26:15.945Z,97311.28
2022-12-17T17:28:43.085Z,97302.34
2022-12-17T17:31:12.545Z,97288.09
2022-12-17T17:33:43.169Z,97309.25
2022-12-17T17:36:16.235Z,97284.63
2022-12-17T17:38:43.187Z,97324.41
2022-12-17T17:41:16.854Z,97327.34
2022-12-17T17:43:43.531Z,97332.13
2022-12-17T17:46:14.660Z,97305.22
2022-12-17T17:48:42.706Z,97319.59
2022-12-17T17:51:18.242Z,97284.09
2022-12-17T17:53:46.744Z,97327.00
2022-12-17T17:56:17.030Z,97327.38
2022-12-17T17:58:46.435Z,97328.78
2022-12-17T18:01:17.207Z,97326.50
2022-12-17T18:03:44.885Z,97329.75
2022-12-17T18:06:13.372Z,97346.81
2022-12-17T18:08:42.373Z,97336.31
2022-12-17T18:11:22.885Z,97332.41
2022-12-17T18:13:56.747Z,97348.47
2022-12-17T18:16:25.415Z,97347.50
2022-12-17T18:19:01.147Z,97352.66
2022-12-17T18:21:29.750Z,97283.06
2022-12-17T18:24:05.005Z,97353.28
2022-12-17T18:26:35.851Z,97356.91
2022-12-17T18:29:03.201Z,97361.97
2022-12-17T18:31:30.913Z,97340.53
2022-12-17T18:34:03.978Z,97358.22
2022-12-17T18:36:40.051Z,97368.94
2022-12-17T18:39:11.061Z,97365.72
2022-12-17T18:41:56.279Z,97367.34
2022-12-17T18:44:23.164Z,97360.84
2022-12-17T18:46:50.157Z,97374.00
2022-12-17T18:49:19.611Z,97373.41
2022-12-17T18:51:48.828Z,97375.34
2022-12-17T18:54:22.307Z,97378.09
2022-12-17T18:57:01.041Z,97380.06
2022-12-17T18:59:30.142Z,97380.78
2022-12-17T19:01:57.805Z,97384.25
2022-12-17T19:04:25.877Z,97379.63
2022-12-17T19:07:13.116Z,97383.63
2022-12-17T19:09:40.549Z,97303.28
2022-12-17T19:12:09.014Z,97381.16
2022-12-17T19:14:36.017Z,97390.09
2022-12-17T19:17:03.102Z,97342.66
2022-12-17T19:19:29.798Z,97360.97
2022-12-17T19:21:58.710Z,97390.78
2022-12-17T19:24:25.491Z,97393.16
2022-12-17T19:26:52.502Z,97394.59
2022-12-17T19:29:20.362Z,97348.13
2022-12-17T19:31:47.688Z,97400.19
2022-12-17T19:34:16.138Z,97384.88
2022-12-17T19:36:43.891Z,97386.47
2022-12-17T19:39:16.892Z,97423.44
2022-12-17T19:41:43.949Z,97414.69
2022-12-17T19:44:16.182Z,97418.66
2022-12-17T19:46:44.037Z,97419.28
2022-12-17T19:49:14.816Z,97420.41
2022-12-17T19:51:44.201Z,97423.44
2022-12-17T19:54:15.370Z,97409.38
2022-12-17T19:56:44.386Z,97420.06
2022-12-17T19:59:12.196Z,97403.66
2022-12-17T20:01:46.563Z,97438.56
2022-12-17T20:04:15.903Z,97422.97
2022-12-17T20:06:43.368Z,97419.13
2022-12-17T20:09:10.560Z,97447.66
2022-12-17T20:11:37.350Z,97449.41
2022-12-17T20:14:26.452Z,97449.84
2022-12-17T20:16:56.636Z,97449.84
2022-12-17T20:19:30.872Z,97450.03
2022-12-17T20:22:00.402Z,97451.78
2022-12-17T20:24:31.138Z,97445.13
2022-12-17T20:26:59.130Z,97449.13
2022-12-17T20:29:26.101Z,97437.31
2022-12-17T20:31:53.829Z,97444.97
2022-12-17T20:34:20.627Z,97421.53
2022-12-17T20:36:47.362Z,97439.84
2022-12-17T20:39:14.124Z,97437.28
2022-12-17T20:41:41.878Z,97437.13
2022-12-17T20:44:11.897Z,97426.78
2022-12-17T20:46:41.188Z,97443.50
2022-12-17T20:49:08.675Z,97423.75
2022-12-17T20:51:35.478Z,97445.75
2022-12-17T20:54:02.706Z,97384.28
2022-12-17T20:56:32.577Z,97438.75
2022-12-17T20:59:03.712Z,97416.28
2022-12-17T21:01:33.155Z,97444.16
2022-12-17T21:04:00.834Z,97452.59
2022-12-17T21:06:29.347Z,97416.75
2022-12-17T21:08:56.230Z,97450.69
2022-12-17T21:11:25.412Z,97439.38
2022-12-17T21:13:53.604Z,97447.53
2022-12-17T21:16:26.235Z,97443.22
2022-12-17T21:18:54.874Z,97447.38
2022-12-17T21:21:24.485Z,97395.41
2022-12-17T21:23:51.636Z,97437.31
2022-12-17T21:26:48.010Z,97437.00
2022-12-17T21:29:15.778Z,97406.41
2022-12-17T21:31:45.704Z,97443.53
2022-12-17T21:34:15.594Z,97423.59
2022-12-17T21:36:42.850Z,97433.00
2022-12-17T21:39:11.837Z,97421.88
2022-12-17T21:41:44.765Z,97444.19
2022-12-17T21:44:13.189Z,97456.75
2022-12-17T21:46:40.854Z,97435.88
2022-12-17T21:49:07.579Z,97462.19
2022-12-17T21:51:37.312Z,97443.06
2022-12-17T21:54:08.981Z,97430.66
2022-12-17T21:56:36.507Z,97470.31
2022-12-17T21:59:03.780Z,97446.53
2022-12-17T22:01:33.162Z,97479.31
2022-12-17T22:04:01.409Z,97475.75
2022-12-17T22:06:34.210Z,97485.94
2022-12-17T22:09:12.848Z,97489.00
2022-12-17T22:11:42.981Z,97450.72
2022-12-17T22:14:18.690Z,97490.25
2022-12-17T22:16:49.509Z,97496.78
2022-12-17T22:19:23.200Z,97500.84
2022-12-17T22:21:51.469Z,97500.84
2022-12-17T22:24:22.724Z,97514.69
2022-12-17T22:26:49.424Z,97479.91
2022-12-17T22:29:36.367Z,97511.31
2022-12-17T22:32:21.849Z,97514.69
2022-12-17T22:36:28.159Z,97463.53
2022-12-17T22:39:44.868Z,97484.47
2022-12-17T22:44:28.428Z,97524.53
2022-12-17T22:44:38.221Z,97522.25
2022-12-17T22:46:17.760Z,97534.19
2022-12-17T22:48:45.009Z,97517.56
2022-12-17T22:51:14.383Z,97524.88
2022-12-17T22:53:45.000Z,97532.69
2022-12-17T22:56:28.991Z,97502.53
2022-12-17T22:59:01.265Z,97546.41
2022-12-17T23:01:28.491Z,97538.81
2022-12-17T23:03:56.519Z,97500.25
2022-12-17T23:06:23.749Z,97525.22
2022-12-17T23:08:50.547Z,97543.13
2022-12-17T23:11:22.768Z,97550.47
2022-12-17T23:13:50.006Z,97519.31
2022-12-17T23:16:19.803Z,97556.50
2022-12-17T23:18:47.846Z,97566.88
2022-12-17T23:21:18.215Z,97561.72
2022-12-17T23:23:45.114Z,97556.41
2022-12-17T23:26:14.845Z,97560.06
2022-12-17T23:28:42.254Z,97526.66
2022-12-17T23:31:18.658Z,97536.44
2022-12-17T23:33:46.208Z,97539.50
2022-12-17T23:36:15.421Z,97564.94
2022-12-17T23:38:42.469Z,97526.94
2022-12-17T23:41:15.197Z,97556.66
2022-12-17T23:43:42.194Z,97561.88
2022-12-17T23:46:10.258Z,97559.41
2022-12-17T23:48:45.039Z,97563.41
2022-12-17T23:51:14.297Z,97558.53
2022-12-17T23:53:42.650Z,97563.25
2022-12-17T23:56:14.581Z,97563.47
2022-12-17T23:58:42.838Z,97566.44
